Time;durP1;ratioP1;P1;durP2;ratioP2;P2;SDS_P1;SDS_P2;PMS_P1;PMS_P2;Temp;Humidity;BMP_temperature;BMP_pressure;BME280_temperature;BME280_humidity;BME280_pressure;Samples;Min_cycle;Max_cycle;Signal;HPM_P1;HPM_P2
2021/04/04 00:00:35;;;;;;;14.38;4.93;;;20.70;39.30;;;;;;5199033;28;20467;-76
2021/04/04 00:03:06;;;;;;;12.20;5.38;;;20.80;39.30;;;;;;5186342;28;20065;-77
2021/04/04 00:05:37;;;;;;;14.43;5.07;;;20.70;39.10;;;;;;5188023;28;20101;-75
2021/04/04 00:08:08;;;;;;;14.13;5.13;;;20.60;39.60;;;;;;5186010;28;20120;-77
2021/04/04 00:10:38;;;;;;;12.30;5.30;;;20.40;40.10;;;;;;5203524;28;20030;-76
2021/04/04 00:13:08;;;;;;;12.73;5.07;;;20.20;40.50;;;;;;5201573;28;20053;-76
2021/04/04 00:15:41;;;;;;;11.65;4.60;;;20.10;41.00;;;;;;5186033;28;20117;-76
2021/04/04 00:18:12;;;;;;;12.50;4.65;;;20.00;40.90;;;;;;5192041;28;20671;-77
2021/04/04 00:20:42;;;;;;;12.68;4.45;;;19.90;41.40;;;;;;5183283;28;20124;-76
2021/04/04 00:23:13;;;;;;;12.52;4.63;;;19.80;41.90;;;;;;5185641;28;20034;-76
2021/04/04 00:25:43;;;;;;;9.93;4.57;;;19.70;42.10;;;;;;5203403;28;20033;-76
2021/04/04 00:28:14;;;;;;;11.52;4.80;;;19.60;42.80;;;;;;5183309;28;20052;-77
2021/04/04 00:30:44;;;;;;;12.00;4.85;;;19.60;43.40;;;;;;5190698;28;20033;-77
2021/04/04 00:33:15;;;;;;;13.23;4.38;;;19.60;43.50;;;;;;5199511;28;20041;-76
2021/04/04 00:35:46;;;;;;;14.77;4.75;;;19.50;43.70;;;;;;5187153;28;20076;-77
2021/04/04 00:38:17;;;;;;;11.75;4.40;;;19.50;44.00;;;;;;5181912;28;20037;-76
2021/04/04 00:40:47;;;;;;;24.10;4.13;;;19.40;44.20;;;;;;5216231;28;20496;-76
2021/04/04 00:43:18;;;;;;;11.80;4.32;;;19.40;44.30;;;;;;5189271;28;20038;-77
2021/04/04 00:45:48;;;;;;;15.05;4.57;;;19.40;44.60;;;;;;5202792;28;20041;-76
2021/04/04 00:48:19;;;;;;;13.75;3.88;;;19.30;44.40;;;;;;5183050;28;20373;-76
2021/04/04 00:50:49;;;;;;;19.52;3.78;;;19.30;44.60;;;;;;5201481;28;20034;-76
2021/04/04 00:53:20;;;;;;;10.18;3.55;;;19.30;44.80;;;;;;5201872;28;20038;-76
2021/04/04 00:55:50;;;;;;;6.82;3.30;;;19.30;44.70;;;;;;5199285;28;20507;-77
2021/04/04 00:58:24;;;;;;;8.45;3.15;;;19.30;44.70;;;;;;5166516;28;20045;-76
2021/04/04 01:00:54;;;;;;;9.18;3.67;;;19.30;44.70;;;;;;5172539;28;20026;-77
2021/04/04 01:03:25;;;;;;;9.63;3.65;;;19.20;44.60;;;;;;5150458;28;20057;-77
2021/04/04 01:05:59;;;;;;;7.47;2.88;;;19.20;44.50;;;;;;5192246;28;20492;-75
2021/04/04 01:08:30;;;;;;;7.30;2.90;;;19.20;44.50;;;;;;5170234;28;20479;-77
2021/04/04 01:11:00;;;;;;;9.82;2.63;;;19.20;44.60;;;;;;5202596;28;20026;-77
2021/04/04 01:13:36;;;;;;;6.78;3.08;;;19.20;44.40;;;;;;5186097;28;20516;-76
2021/04/04 01:16:08;;;;;;;9.05;3.22;;;19.10;44.30;;;;;;5201628;28;20064;-76
2021/04/04 01:18:49;;;;;;;6.07;2.65;;;19.10;44.40;;;;;;5203495;28;20516;-75
2021/04/04 01:21:29;;;;;;;8.57;3.05;;;19.10;44.50;;;;;;5202082;28;20064;-77
2021/04/04 01:24:03;;;;;;;9.45;2.88;;;19.10;44.50;;;;;;5176254;28;20080;-76
2021/04/04 01:26:58;;;;;;;8.90;3.22;;;19.10;44.50;;;;;;5200617;28;20052;-76
2021/04/04 01:29:29;;;;;;;8.13;3.40;;;19.00;44.30;;;;;;5206367;28;20517;-76
2021/04/04 01:31:59;;;;;;;9.43;3.00;;;19.00;44.60;;;;;;5205222;28;20112;-77
2021/04/04 01:34:30;;;;;;;8.85;3.30;;;19.00;44.60;;;;;;5186493;28;20030;-76
2021/04/04 01:37:05;;;;;;;5.93;2.70;;;19.00;44.40;;;;;;5174370;28;20030;-76
2021/04/04 01:39:43;;;;;;;8.75;2.95;;;19.00;44.40;;;;;;5172827;28;20057;-77
2021/04/04 01:42:13;;;;;;;6.50;2.53;;;19.00;44.50;;;;;;5186049;28;20053;-77
2021/04/04 01:44:46;;;;;;;6.80;2.60;;;19.00;44.50;;;;;;5164813;28;20026;-77
2021/04/04 01:47:16;;;;;;;7.20;2.25;;;19.00;44.30;;;;;;5170073;28;20029;-75
2021/04/04 01:49:48;;;;;;;5.72;2.28;;;19.00;44.60;;;;;;5186098;28;20778;-75
2021/04/04 01:52:18;;;;;;;7.70;2.80;;;19.00;44.50;;;;;;5171161;28;20026;-76
2021/04/04 01:54:49;;;;;;;11.15;3.13;;;18.90;44.50;;;;;;5170029;28;20041;-77
2021/04/04 01:57:19;;;;;;;10.82;2.88;;;19.00;44.70;;;;;;5192128;28;20037;-77
2021/04/04 01:59:50;;;;;;;9.77;2.80;;;19.00;44.80;;;;;;5182076;28;20495;-77
2021/04/04 02:02:20;;;;;;;7.43;2.30;;;19.00;45.00;;;;;;5190149;28;20038;-76
2021/04/04 02:04:51;;;;;;;8.60;2.20;;;19.00;44.80;;;;;;5188053;28;20400;-77
2021/04/04 02:07:21;;;;;;;6.18;2.20;;;19.00;44.80;;;;;;5189750;28;20028;-77
2021/04/04 02:09:52;;;;;;;10.27;2.33;;;19.00;45.10;;;;;;5201986;28;20036;-76
2021/04/04 02:12:23;;;;;;;7.82;2.50;;;19.00;44.90;;;;;;5153382;28;20014;-77
2021/04/04 02:14:53;;;;;;;8.82;2.25;;;19.00;45.00;;;;;;5165666;28;20184;-76
2021/04/04 02:17:24;;;;;;;7.95;2.55;;;19.00;44.90;;;;;;5186549;28;20037;-76
2021/04/04 02:19:54;;;;;;;12.88;2.30;;;19.00;45.10;;;;;;5169107;28;20038;-76
2021/04/04 02:22:25;;;;;;;5.30;2.22;;;19.00;45.20;;;;;;5173131;28;20168;-77
2021/04/04 02:24:56;;;;;;;7.90;2.58;;;19.00;45.20;;;;;;5171618;28;20026;-76
2021/04/04 02:27:26;;;;;;;12.30;2.97;;;19.00;46.00;;;;;;5177121;28;20099;-76
2021/04/04 02:29:57;;;;;;;6.47;2.17;;;19.00;45.70;;;;;;5184769;28;20144;-77
2021/04/04 02:32:27;;;;;;;7.05;2.35;;;19.00;45.70;;;;;;5189168;28;20060;-77
2021/04/04 02:34:58;;;;;;;16.08;2.63;;;19.00;45.50;;;;;;5189333;28;20037;-77
2021/04/04 02:37:28;;;;;;;7.18;2.17;;;18.90;45.60;;;;;;5185391;28;20042;-77
2021/04/04 02:40:02;;;;;;;7.05;2.15;;;19.00;45.60;;;;;;5168122;28;20030;-77
2021/04/04 02:42:33;;;;;;;7.45;2.15;;;18.90;45.40;;;;;;5170591;28;20026;-77
2021/04/04 02:45:04;;;;;;;10.45;2.60;;;18.90;45.40;;;;;;5153380;28;20032;-77
2021/04/04 02:47:42;;;;;;;9.40;2.65;;;18.90;45.40;;;;;;5201601;28;20033;-77
2021/04/04 02:50:13;;;;;;;12.52;3.03;;;18.90;45.40;;;;;;5169124;28;20029;-76
2021/04/04 02:52:43;;;;;;;9.48;3.10;;;18.90;45.60;;;;;;5198012;28;20034;-77
2021/04/04 02:55:14;;;;;;;12.65;2.95;;;18.90;45.40;;;;;;5176088;28;20033;-76
2021/04/04 02:57:44;;;;;;;10.07;3.03;;;18.90;45.20;;;;;;5184564;28;20030;-77
2021/04/04 03:00:16;;;;;;;13.30;3.22;;;18.90;45.30;;;;;;5181361;28;20030;-77
2021/04/04 03:02:47;;;;;;;10.90;2.90;;;18.90;45.90;;;;;;5169655;28;20087;-76
2021/04/04 03:05:17;;;;;;;10.77;3.10;;;18.90;45.90;;;;;;5168790;28;20432;-75
2021/04/04 03:07:47;;;;;;;9.30;3.05;;;18.90;45.80;;;;;;5178531;28;20037;-77
2021/04/04 03:10:18;;;;;;;10.27;3.30;;;18.90;45.80;;;;;;5183740;28;20055;-76
2021/04/04 03:12:49;;;;;;;16.40;4.10;;;18.90;45.60;;;;;;5204917;28;20033;-77
2021/04/04 03:15:20;;;;;;;11.32;3.20;;;18.90;45.70;;;;;;5203853;28;20041;-77
2021/04/04 03:17:50;;;;;;;9.32;2.63;;;18.80;45.80;;;;;;5198640;28;20038;-77
2021/04/04 03:20:21;;;;;;;9.60;3.20;;;18.80;45.60;;;;;;5187255;28;20025;-77
2021/04/04 03:22:51;;;;;;;9.98;2.92;;;18.80;45.60;;;;;;5204269;28;20037;-77
2021/04/04 03:25:22;;;;;;;9.30;3.05;;;18.80;45.70;;;;;;5204886;28;20030;-76
2021/04/04 03:27:53;;;;;;;8.02;2.88;;;18.80;45.60;;;;;;5187920;28;20030;-76
2021/04/04 03:30:35;;;;;;;10.25;2.90;;;18.80;45.40;;;;;;5182880;28;20454;-77
2021/04/04 03:33:06;;;;;;;11.93;3.22;;;18.80;45.60;;;;;;5174484;28;20021;-76
2021/04/04 03:35:36;;;;;;;8.55;3.13;;;18.80;45.50;;;;;;5184332;28;20080;-77
2021/04/04 03:38:08;;;;;;;8.43;2.90;;;18.80;45.50;;;;;;5180696;28;20030;-76
2021/04/04 03:40:39;;;;;;;12.32;2.97;;;18.80;45.60;;;;;;5167611;28;20033;-76
2021/04/04 03:43:25;;;;;;;11.23;2.67;;;18.80;45.60;;;;;;5166084;28;20184;-77
2021/04/04 03:46:01;;;;;;;7.75;2.75;;;18.90;45.70;;;;;;5188225;28;20087;-76
2021/04/04 03:48:31;;;;;;;5.53;2.30;;;18.80;45.60;;;;;;5199862;28;20045;-75
2021/04/04 03:51:04;;;;;;;6.32;2.30;;;18.90;45.60;;;;;;5177662;28;20060;-77
2021/04/04 03:53:37;;;;;;;8.48;2.60;;;18.80;45.60;;;;;;5187880;28;20022;-77
2021/04/04 03:56:08;;;;;;;8.25;2.60;;;18.80;45.60;;;;;;5183867;28;20231;-76
2021/04/04 03:58:39;;;;;;;9.50;2.70;;;18.80;45.70;;;;;;5181903;28;20021;-76
2021/04/04 04:01:09;;;;;;;8.45;2.30;;;18.90;45.90;;;;;;5201993;28;20037;-77
2021/04/04 04:03:40;;;;;;;8.65;2.60;;;18.90;45.80;;;;;;5183447;28;20056;-77
2021/04/04 04:06:10;;;;;;;8.90;2.80;;;18.80;45.90;;;;;;5171669;28;20049;-77
2021/04/04 04:08:41;;;;;;;11.07;2.50;;;18.90;45.90;;;;;;5167400;28;20116;-76
2021/04/04 04:11:11;;;;;;;7.25;2.35;;;18.90;45.90;;;;;;5187486;28;20018;-77
2021/04/04 04:13:42;;;;;;;10.07;2.70;;;18.90;45.90;;;;;;5217732;28;20033;-77
2021/04/04 04:16:14;;;;;;;8.38;2.40;;;18.90;45.90;;;;;;5186985;28;20041;-76
2021/04/04 04:18:45;;;;;;;7.00;2.20;;;18.90;45.90;;;;;;5200048;28;20033;-77
2021/04/04 04:21:15;;;;;;;7.65;1.90;;;18.90;45.90;;;;;;5182072;28;20510;-77
2021/04/04 04:23:46;;;;;;;7.07;2.15;;;18.90;45.80;;;;;;5187484;28;20449;-76
2021/04/04 04:26:16;;;;;;;6.63;2.42;;;18.90;45.90;;;;;;5199845;28;20429;-75
2021/04/04 04:28:47;;;;;;;7.75;2.22;;;18.90;45.90;;;;;;5167845;28;20109;-76
2021/04/04 04:31:20;;;;;;;4.65;1.77;;;18.90;45.80;;;;;;5166628;28;20517;-75
2021/04/04 04:33:52;;;;;;;4.63;1.73;;;18.90;45.90;;;;;;5185783;28;20025;-77
2021/04/04 04:36:23;;;;;;;6.97;2.22;;;18.90;45.80;;;;;;5199471;28;20041;-77
2021/04/04 04:38:54;;;;;;;5.65;2.08;;;18.90;45.80;;;;;;5166872;28;20631;-77
2021/04/04 04:41:24;;;;;;;4.68;1.55;;;18.90;45.90;;;;;;5154235;28;20034;-76
2021/04/04 04:44:00;;;;;;;8.10;1.80;;;18.90;45.90;;;;;;5168164;28;20041;-76
2021/04/04 04:46:31;;;;;;;6.10;1.65;;;18.90;45.90;;;;;;5150969;28;20120;-77
2021/04/04 04:49:02;;;;;;;6.03;1.63;;;18.90;46.30;;;;;;5163610;28;20112;-77
2021/04/04 04:51:32;;;;;;;11.20;2.10;;;18.90;46.20;;;;;;5186449;28;20104;-76
2021/04/04 04:54:03;;;;;;;5.07;1.50;;;18.90;46.40;;;;;;5183886;28;20026;-77
2021/04/04 04:56:40;;;;;;;5.30;1.75;;;18.90;46.40;;;;;;5187259;28;20033;-76
2021/04/04 04:59:10;;;;;;;5.72;1.63;;;18.90;46.40;;;;;;5182758;28;20404;-76
2021/04/04 05:01:43;;;;;;;5.97;1.98;;;18.90;46.50;;;;;;5169580;28;20045;-77
2021/04/04 05:04:13;;;;;;;6.13;1.85;;;18.90;46.50;;;;;;5186533;28;20072;-77
2021/04/04 05:06:48;;;;;;;5.07;1.80;;;18.90;46.40;;;;;;5170979;28;20025;-76
2021/04/04 05:09:18;;;;;;;10.32;1.77;;;18.90;46.50;;;;;;5179651;28;20029;-76
2021/04/04 05:11:49;;;;;;;6.82;1.40;;;18.90;46.60;;;;;;5159137;28;20491;-76
2021/04/04 05:14:19;;;;;;;10.60;1.60;;;18.90;46.60;;;;;;5189091;28;20026;-75
2021/04/04 05:16:52;;;;;;;15.82;2.05;;;18.90;47.10;;;;;;5206293;28;20617;-76
2021/04/04 05:19:22;;;;;;;14.20;2.00;;;19.00;47.30;;;;;;5215264;28;20055;-77
2021/04/04 05:21:53;;;;;;;8.90;1.55;;;19.20;47.70;;;;;;5195449;28;20028;-76
2021/04/04 05:24:23;;;;;;;18.70;2.13;;;19.30;47.90;;;;;;5209029;28;20030;-76
2021/04/04 05:26:54;;;;;;;7.75;1.88;;;19.30;47.40;;;;;;5211004;28;20036;-76
2021/04/04 05:29:24;;;;;;;12.18;1.80;;;19.30;47.50;;;;;;5180748;28;20044;-76
2021/04/04 05:31:56;;;;;;;7.25;1.50;;;19.40;47.40;;;;;;5190582;28;20045;-76
2021/04/04 05:34:27;;;;;;;11.85;2.50;;;19.30;47.00;;;;;;5185023;28;20506;-76
2021/04/04 05:37:01;;;;;;;6.78;1.80;;;19.30;47.20;;;;;;5199394;28;20025;-76
2021/04/04 05:39:34;;;;;;;3.95;1.70;;;19.30;46.80;;;;;;5190683;28;20487;-76
2021/04/04 05:42:06;;;;;;;9.18;1.70;;;19.20;46.90;;;;;;5206259;28;20025;-76
2021/04/04 05:44:46;;;;;;;6.38;1.77;;;19.20;46.90;;;;;;5218976;28;20107;-78
2021/04/04 05:47:41;;;;;;;6.50;1.60;;;19.20;46.80;;;;;;5206129;28;20057;-77
2021/04/04 05:50:20;;;;;;;6.38;1.60;;;19.20;46.70;;;;;;5204702;28;20418;-77
2021/04/04 05:53:05;;;;;;;5.43;1.40;;;19.20;46.70;;;;;;5190872;28;20025;-77
2021/04/04 05:55:52;;;;;;;3.78;1.70;;;19.20;46.70;;;;;;5190145;28;20076;-78
2021/04/04 05:58:29;;;;;;;3.75;1.48;;;19.20;46.60;;;;;;5186276;28;20084;-77
2021/04/04 06:01:06;;;;;;;5.15;1.40;;;19.20;46.50;;;;;;5188968;28;20047;-77
2021/04/04 06:04:01;;;;;;;5.00;1.67;;;19.20;46.50;;;;;;5195703;28;20408;-75
2021/04/04 06:06:37;;;;;;;4.30;1.25;;;19.20;46.30;;;;;;5186811;28;20022;-77
2021/04/04 06:09:47;;;;;;;3.72;1.20;;;19.20;46.40;;;;;;5196955;28;20042;-77
2021/04/04 06:12:27;;;;;;;3.72;1.20;;;19.20;46.30;;;;;;5105895;28;20032;-76
2021/04/04 06:15:24;;;;;;;5.97;1.90;;;19.20;46.30;;;;;;5126655;28;20027;-77
2021/04/04 06:18:08;;;;;;;2.67;1.20;;;19.20;46.30;;;;;;5176533;28;20040;-74
2021/04/04 06:20:49;;;;;;;2.42;1.35;;;19.20;46.10;;;;;;5183516;28;20029;-77
2021/04/04 06:23:38;;;;;;;2.30;1.20;;;19.20;46.20;;;;;;5184946;28;20057;-77
2021/04/04 06:26:29;;;;;;;5.10;1.08;;;19.20;46.10;;;;;;5173166;28;20033;-77
2021/04/04 06:29:11;;;;;;;2.78;1.02;;;19.20;46.10;;;;;;5203605;28;20027;-77
2021/04/04 06:32:04;;;;;;;5.38;1.45;;;19.20;46.10;;;;;;5213198;28;20433;-77
2021/04/04 06:34:38;;;;;;;2.88;1.30;;;19.20;46.10;;;;;;5206693;28;20056;-76
2021/04/04 06:37:23;;;;;;;3.70;1.30;;;19.20;46.00;;;;;;5201751;28;20022;-78
2021/04/04 06:40:07;;;;;;;3.35;1.00;;;19.20;46.10;;;;;;5192437;28;20021;-78
2021/04/04 06:42:56;;;;;;;2.92;1.20;;;19.20;46.10;;;;;;5212034;28;20055;-78
2021/04/04 06:45:34;;;;;;;3.47;0.90;;;19.20;45.90;;;;;;5200174;28;20056;-77
2021/04/04 06:48:22;;;;;;;2.53;1.17;;;19.20;46.10;;;;;;5189772;28;20369;-78
2021/04/04 06:51:12;;;;;;;2.47;1.00;;;19.20;45.90;;;;;;5206149;28;20029;-78
2021/04/04 06:53:59;;;;;;;6.35;1.00;;;19.20;46.10;;;;;;5191813;28;20048;-77
2021/04/04 06:56:59;;;;;;;4.05;1.15;;;19.10;46.00;;;;;;5206106;28;20030;-78
2021/04/04 06:59:34;;;;;;;2.67;0.90;;;19.10;46.00;;;;;;5155734;28;20500;-77
2021/04/04 07:02:08;;;;;;;2.30;0.90;;;19.10;46.00;;;;;;5189318;28;20065;-78
2021/04/04 07:04:39;;;;;;;4.70;1.20;;;19.10;45.90;;;;;;5185021;28;20488;-78
2021/04/04 07:07:36;;;;;;;1.83;0.80;;;19.10;45.90;;;;;;5186452;28;20018;-77
2021/04/04 07:10:50;;;;;;;2.92;1.17;;;19.10;45.80;;;;;;5185119;28;20042;-77
2021/04/04 07:13:29;;;;;;;3.53;0.98;;;19.00;45.80;;;;;;5170760;28;20046;-77
2021/04/04 07:16:06;;;;;;;3.33;1.00;;;19.00;46.40;;;;;;5184083;28;20046;-77
2021/04/04 07:19:14;;;;;;;3.17;1.00;;;19.00;45.80;;;;;;5195417;28;20031;-76
2021/04/04 07:22:09;;;;;;;1.63;0.82;;;19.00;45.70;;;;;;5210245;28;20057;-77
2021/04/04 07:25:10;;;;;;;2.13;1.02;;;19.00;45.70;;;;;;5209306;28;20392;-77
2021/04/04 07:27:59;;;;;;;2.50;1.02;;;19.00;45.70;;;;;;5184691;28;20036;-77
2021/04/04 07:30:34;;;;;;;2.67;0.85;;;19.00;45.60;;;;;;5203480;28;20045;-77
2021/04/04 07:33:16;;;;;;;2.33;0.98;;;19.00;45.60;;;;;;5181716;28;20088;-76
2021/04/04 07:35:59;;;;;;;2.47;1.13;;;19.00;45.60;;;;;;5171128;28;20041;-77
2021/04/04 07:38:41;;;;;;;3.42;1.38;;;19.00;45.60;;;;;;5185761;28;20121;-78
2021/04/04 07:41:21;;;;;;;2.35;1.00;;;19.00;45.60;;;;;;5185597;28;20369;-77
2021/04/04 07:43:59;;;;;;;2.88;1.10;;;18.90;45.60;;;;;;5169064;28;20032;-78
2021/04/04 07:46:35;;;;;;;4.15;1.30;;;19.00;45.70;;;;;;5205000;28;20033;-78
2021/04/04 07:49:09;;;;;;;2.72;1.00;;;19.00;45.70;;;;;;5193110;28;20377;-77
2021/04/04 07:51:40;;;;;;;2.78;1.13;;;18.90;45.60;;;;;;5201602;28;20017;-77
2021/04/04 07:54:16;;;;;;;2.25;1.00;;;18.90;45.60;;;;;;5197965;28;20059;-77
2021/04/04 07:56:59;;;;;;;3.45;1.20;;;19.00;45.70;;;;;;5184964;28;20092;-77
2021/04/04 07:59:42;;;;;;;2.28;1.10;;;18.90;45.60;;;;;;5153581;28;20025;-78
2021/04/04 08:02:29;;;;;;;4.25;1.30;;;18.90;45.60;;;;;;5198221;28;20065;-78
2021/04/04 08:05:06;;;;;;;3.25;1.23;;;18.90;45.50;;;;;;5178173;28;20018;-78
2021/04/04 08:07:44;;;;;;;3.10;1.35;;;18.90;45.60;;;;;;5178226;28;20036;-78
2021/04/04 08:10:30;;;;;;;3.33;1.83;;;18.90;45.50;;;;;;5215896;28;20017;-78
2021/04/04 08:13:19;;;;;;;;;;;18.90;45.50;;;;;;5209584;28;20032;-78
2021/04/04 08:16:10;;;;;;;2.78;1.20;;;18.90;45.50;;;;;;5200105;28;20558;-78
2021/04/04 08:18:40;;;;;;;4.55;1.50;;;18.90;45.60;;;;;;5170117;28;20030;-77
2021/04/04 08:21:22;;;;;;;4.13;1.38;;;18.90;45.60;;;;;;5197291;28;20036;-77
2021/04/04 08:23:55;;;;;;;3.05;1.55;;;18.90;45.50;;;;;;5191268;28;20028;-78
2021/04/04 08:26:30;;;;;;;3.40;1.42;;;18.90;45.50;;;;;;5191869;28;20548;-78
2021/04/04 08:29:07;;;;;;;5.13;1.95;;;18.90;45.60;;;;;;5194521;28;20407;-78
2021/04/04 08:31:42;;;;;;;3.88;1.70;;;18.90;45.50;;;;;;5200599;28;20033;-78
2021/04/04 08:34:19;;;;;;;3.95;1.70;;;18.90;45.50;;;;;;5192434;28;20034;-76
2021/04/04 08:36:55;;;;;;;3.85;1.70;;;18.90;45.50;;;;;;5181609;28;20038;-78
2021/04/04 08:39:30;;;;;;;4.07;1.70;;;18.90;45.50;;;;;;5203337;28;20063;-77
2021/04/04 08:42:02;;;;;;;3.97;1.50;;;18.90;45.30;;;;;;5208215;28;20448;-78
2021/04/04 08:44:36;;;;;;;4.55;1.63;;;18.90;45.30;;;;;;5182896;28;20447;-77
2021/04/04 08:47:14;;;;;;;2.60;1.50;;;19.00;45.30;;;;;;5159056;28;20072;-77
2021/04/04 08:49:44;;;;;;;3.30;1.30;;;19.00;45.30;;;;;;5200979;28;20057;-77
2021/04/04 08:52:29;;;;;;;3.55;1.60;;;18.90;45.10;;;;;;5190071;28;20520;-77
2021/04/04 08:54:59;;;;;;;3.70;1.33;;;19.00;45.00;;;;;;5197512;28;20029;-81
2021/04/04 08:57:31;;;;;;;2.53;1.50;;;19.00;45.10;;;;;;5208108;28;20037;-82
2021/04/04 09:00:08;;;;;;;3.60;1.52;;;19.00;45.10;;;;;;5209173;28;20033;-81
2021/04/04 09:03:08;;;;;;;2.42;1.30;;;19.00;45.30;;;;;;5212364;28;20046;-78
2021/04/04 09:05:39;;;;;;;1.58;1.20;;;19.00;45.20;;;;;;5195068;28;20549;-82
2021/04/04 09:08:12;;;;;;;1.92;1.30;;;19.00;45.30;;;;;;5208483;28;20037;-80
2021/04/04 09:11:02;;;;;;;2.70;1.30;;;18.90;45.10;;;;;;5208212;28;20037;-79
2021/04/04 09:13:33;;;;;;;2.45;1.30;;;19.00;45.20;;;;;;5211560;28;20093;-81
2021/04/04 09:16:14;;;;;;;2.45;1.27;;;19.00;45.20;;;;;;5198127;28;20049;-81
2021/04/04 09:18:51;;;;;;;1.90;1.40;;;19.00;45.80;;;;;;5205478;28;20386;-78
2021/04/04 09:21:22;;;;;;;1.35;1.00;;;19.00;45.10;;;;;;5187748;28;20033;-78
2021/04/04 09:23:53;;;;;;;2.55;1.08;;;19.00;45.00;;;;;;5190016;28;20074;-78
2021/04/04 09:26:24;;;;;;;2.35;1.10;;;19.00;45.10;;;;;;5182718;28;20083;-77
2021/04/04 09:28:54;;;;;;;2.85;1.40;;;19.00;45.00;;;;;;5184755;28;20415;-78
2021/04/04 09:31:29;;;;;;;2.13;1.10;;;19.00;45.00;;;;;;5192125;28;20021;-78
2021/04/04 09:34:02;;;;;;;2.88;1.30;;;19.00;45.00;;;;;;5187179;28;20049;-78
2021/04/04 09:36:40;;;;;;;2.63;1.00;;;19.00;45.10;;;;;;5168876;28;20030;-78
2021/04/04 09:39:11;;;;;;;3.03;1.20;;;19.00;45.20;;;;;;5200387;28;20029;-78
2021/04/04 09:41:42;;;;;;;3.25;1.38;;;19.00;45.20;;;;;;5189105;28;20039;-79
2021/04/04 09:44:12;;;;;;;2.65;1.20;;;19.00;45.20;;;;;;5188469;28;20495;-79
2021/04/04 09:46:52;;;;;;;2.17;1.17;;;19.00;45.00;;;;;;5189070;28;20040;-78
2021/04/04 09:49:37;;;;;;;2.30;1.00;;;19.00;45.20;;;;;;5192553;28;20022;-79
2021/04/04 09:52:15;;;;;;;2.78;1.00;;;19.00;45.10;;;;;;5194645;28;20535;-79
2021/04/04 09:55:04;;;;;;;2.35;1.10;;;19.00;45.60;;;;;;5207092;28;20022;-80
2021/04/04 09:57:42;;;;;;;1.17;0.93;;;19.00;45.00;;;;;;5199665;28;20030;-80
2021/04/04 10:00:30;;;;;;;2.17;1.00;;;19.00;45.10;;;;;;5171795;28;20030;-79
2021/04/04 10:03:19;;;;;;;3.42;1.10;;;19.00;44.90;;;;;;5190685;28;20045;-79
2021/04/04 10:05:50;;;;;;;2.63;1.10;;;19.00;45.10;;;;;;5205622;28;20085;-78
2021/04/04 10:08:29;;;;;;;2.42;1.20;;;19.00;45.00;;;;;;5209009;28;20045;-79
2021/04/04 10:10:59;;;;;;;2.28;1.17;;;19.00;45.00;;;;;;5186271;28;20022;-79
2021/04/04 10:13:30;;;;;;;2.10;1.00;;;19.00;45.10;;;;;;5173012;28;20484;-78
2021/04/04 10:16:03;;;;;;;1.33;1.00;;;19.00;45.10;;;;;;5174285;28;20593;-79
2021/04/04 10:18:35;;;;;;;1.67;0.80;;;19.00;45.00;;;;;;5198864;28;20033;-80
2021/04/04 10:21:07;;;;;;;1.50;0.80;;;19.00;45.00;;;;;;5196061;28;20030;-79
2021/04/04 10:23:39;;;;;;;1.90;1.08;;;19.00;44.80;;;;;;5195819;28;20037;-79
2021/04/04 10:26:10;;;;;;;3.60;1.10;;;19.00;44.80;;;;;;5214141;28;20048;-79
2021/04/04 10:28:44;;;;;;;1.88;1.00;;;19.00;44.90;;;;;;5205814;28;20045;-78
2021/04/04 10:31:15;;;;;;;1.95;0.80;;;19.00;45.00;;;;;;5220735;28;20033;-79
2021/04/04 10:33:59;;;;;;;2.70;1.10;;;19.00;45.00;;;;;;5177925;28;20034;-78
2021/04/04 10:36:29;;;;;;;9.00;1.42;;;18.90;43.50;;;;;;5211803;28;20040;-77
2021/04/04 10:39:00;;;;;;;21.38;3.35;;;18.50;44.60;;;;;;5180434;28;20025;-78
2021/04/04 10:41:32;;;;;;;26.25;3.78;;;18.30;44.50;;;;;;5200047;28;20156;-76
2021/04/04 10:44:05;;;;;;;16.95;2.55;;;18.10;46.10;;;;;;5188849;28;20036;-79
2021/04/04 10:46:35;;;;;;;18.92;2.47;;;18.00;44.50;;;;;;5188411;28;20065;-77
2021/04/04 10:49:06;;;;;;;10.82;2.17;;;18.00;47.00;;;;;;5192071;28;20042;-77
2021/04/04 10:51:36;;;;;;;12.68;2.38;;;18.10;47.10;;;;;;5177035;28;20026;-77
2021/04/04 10:54:07;;;;;;;8.10;2.25;;;18.10;46.20;;;;;;5186957;28;20033;-78
2021/04/04 10:56:37;;;;;;;10.40;2.03;;;17.90;46.40;;;;;;5208059;28;20034;-78
2021/04/04 10:59:08;;;;;;;10.93;2.00;;;17.90;48.20;;;;;;5193173;28;20034;-77
2021/04/04 11:01:38;;;;;;;9.95;1.90;;;17.90;48.20;;;;;;5196004;28;20042;-77
2021/04/04 11:04:09;;;;;;;10.80;2.40;;;17.80;48.20;;;;;;5181624;28;20045;-78
2021/04/04 11:06:39;;;;;;;8.50;2.08;;;17.80;49.40;;;;;;5203830;28;20105;-77
2021/04/04 11:09:10;;;;;;;7.90;2.13;;;17.80;50.00;;;;;;5188351;28;20576;-78
2021/04/04 11:11:40;;;;;;;7.10;1.98;;;17.70;50.40;;;;;;5199093;28;20851;-77
2021/04/04 11:14:11;;;;;;;10.00;2.50;;;17.80;49.40;;;;;;5184657;28;20117;-77
2021/04/04 11:16:41;;;;;;;6.63;2.00;;;17.80;51.10;;;;;;5184624;28;20132;-77
2021/04/04 11:19:12;;;;;;;12.18;1.88;;;17.90;51.10;;;;;;5184479;28;20057;-77
2021/04/04 11:21:42;;;;;;;16.17;2.10;;;17.90;51.70;;;;;;5168351;28;20061;-77
2021/04/04 11:24:14;;;;;;;8.00;1.70;;;17.80;51.70;;;;;;5194864;28;20105;-78
2021/04/04 11:26:52;;;;;;;8.77;2.10;;;17.80;52.00;;;;;;5176274;28;20018;-78
2021/04/04 11:29:23;;;;;;;8.90;1.98;;;17.80;52.10;;;;;;5162283;28;20518;-76
2021/04/04 11:32:02;;;;;;;6.03;2.10;;;17.70;52.70;;;;;;5185933;28;20523;-77
2021/04/04 11:34:40;;;;;;;7.80;2.08;;;17.80;51.60;;;;;;5184270;28;20060;-78
2021/04/04 11:37:16;;;;;;;10.00;1.75;;;17.70;53.10;;;;;;5158008;28;20557;-78
2021/04/04 11:40:18;;;;;;;9.02;1.55;;;17.80;52.70;;;;;;5193409;28;20021;-78
2021/04/04 11:43:11;;;;;;;8.05;1.90;;;17.80;52.00;;;;;;5189924;28;20068;-76
2021/04/04 11:45:43;;;;;;;8.82;1.58;;;17.80;54.30;;;;;;5185258;28;20125;-78
2021/04/04 11:48:27;;;;;;;7.07;1.95;;;18.00;52.90;;;;;;5183719;28;20017;-76
2021/04/04 11:51:10;;;;;;;4.72;1.50;;;18.20;51.10;;;;;;5202993;28;20029;-77
2021/04/04 11:53:44;;;;;;;9.15;1.50;;;18.20;50.30;;;;;;5199681;28;20071;-76
2021/04/04 11:56:43;;;;;;;8.02;1.33;;;18.20;50.30;;;;;;5201565;28;20041;-77
2021/04/04 11:59:18;;;;;;;8.48;1.63;;;18.20;48.70;;;;;;5203766;28;20096;-78
2021/04/04 12:01:48;;;;;;;4.85;1.30;;;18.20;49.00;;;;;;5198569;28;20500;-77
2021/04/04 12:04:30;;;;;;;10.75;1.08;;;18.30;48.80;;;;;;5172083;28;20044;-77
2021/04/04 12:07:07;;;;;;;2.95;1.05;;;18.20;47.90;;;;;;5185504;28;20026;-77
2021/04/04 12:09:39;;;;;;;3.70;0.98;;;18.20;48.10;;;;;;5194137;28;20018;-77
2021/04/04 12:12:09;;;;;;;3.78;1.02;;;18.20;47.80;;;;;;5182511;28;20508;-77
2021/04/04 12:14:47;;;;;;;2.88;0.73;;;18.30;47.30;;;;;;5175918;28;20022;-76
2021/04/04 12:17:19;;;;;;;3.15;1.23;;;18.30;47.00;;;;;;5170179;28;20034;-76
2021/04/04 12:19:50;;;;;;;4.38;1.00;;;18.30;46.70;;;;;;5195750;28;20030;-78
2021/04/04 12:22:21;;;;;;;2.50;0.90;;;18.20;46.20;;;;;;5178887;28;20029;-77
2021/04/04 12:24:52;;;;;;;2.88;1.05;;;18.20;46.00;;;;;;5183959;28;20076;-79
2021/04/04 12:27:23;;;;;;;3.05;0.98;;;18.20;46.20;;;;;;5182019;28;20029;-79
2021/04/04 12:29:56;;;;;;;2.30;1.00;;;18.20;45.80;;;;;;5193913;28;20075;-77
2021/04/04 12:32:27;;;;;;;2.95;0.93;;;18.30;45.60;;;;;;5183024;28;20041;-77
2021/04/04 12:35:04;;;;;;;2.55;1.08;;;18.20;45.60;;;;;;5201689;28;20025;-78
2021/04/04 12:37:38;;;;;;;2.83;0.80;;;18.20;45.50;;;;;;5189483;28;20042;-78
2021/04/04 12:40:09;;;;;;;2.38;0.90;;;18.20;45.50;;;;;;5190042;28;20034;-78
2021/04/04 12:42:40;;;;;;;4.60;1.00;;;18.20;45.40;;;;;;5174542;28;20446;-77
2021/04/04 12:45:12;;;;;;;2.83;0.85;;;18.20;45.60;;;;;;5204043;28;20037;-79
2021/04/04 12:47:43;;;;;;;2.65;0.85;;;18.20;45.20;;;;;;5183889;28;20492;-77
2021/04/04 12:50:15;;;;;;;2.92;1.00;;;18.20;45.10;;;;;;5185713;28;20037;-79
2021/04/04 12:52:47;;;;;;;2.30;0.73;;;18.20;44.80;;;;;;5172707;28;20507;-77
2021/04/04 12:55:29;;;;;;;1.40;0.77;;;18.20;45.00;;;;;;5187040;28;20397;-77
2021/04/04 12:58:08;;;;;;;1.65;0.70;;;18.20;44.80;;;;;;5184648;28;20040;-78
2021/04/04 13:00:40;;;;;;;4.15;0.90;;;18.20;44.60;;;;;;5152088;28;20113;-77
2021/04/04 13:03:15;;;;;;;2.85;0.82;;;18.20;44.80;;;;;;5204925;28;20491;-78
2021/04/04 13:05:46;;;;;;;1.15;0.63;;;18.20;44.70;;;;;;5195549;28;20030;-78
2021/04/04 13:08:19;;;;;;;1.83;0.98;;;18.20;44.50;;;;;;5190240;28;20021;-78
2021/04/04 13:10:56;;;;;;;2.08;0.90;;;18.20;44.40;;;;;;5196074;28;20029;-78
2021/04/04 13:13:28;;;;;;;1.25;0.80;;;18.20;44.50;;;;;;5186903;28;20030;-77
2021/04/04 13:16:00;;;;;;;3.15;1.00;;;18.20;44.40;;;;;;5177661;28;20471;-76
2021/04/04 13:18:35;;;;;;;2.00;0.68;;;18.20;44.50;;;;;;5186426;28;20033;-76
2021/04/04 13:21:07;;;;;;;1.35;0.70;;;18.20;44.60;;;;;;5186887;28;20037;-78
2021/04/04 13:23:39;;;;;;;4.47;1.40;;;18.20;44.20;;;;;;5205809;28;20032;-77
2021/04/04 13:26:15;;;;;;;3.63;1.20;;;18.00;45.50;;;;;;5199445;28;20045;-77